Terminal Aerodrome Forecast
Issued by NWS Paducah, KY

Home | Current Version | Previous Version | Text Only | Print | Product List | Glossary On
Versions: 1 2 3 4 5 6 7 8 9 10 11 12 13 14 15 16 17
658
FTUS43 KPAH 122337
TAFPAH
TAF
KPAH 122337Z 1300/1324 35010G18KT P6SM SCT200
      TEMPO 1300/1302 BKN035
     FM131500 02008KT P6SM BKN150=

USA.gov is the U.S. government's official web portal to all federal, state and local government web resources and services.